createdAt,value
2022-12-20T00:02:53.862Z,8.00
2022-12-20T00:07:56.159Z,3.60
2022-12-20T00:12:58.369Z,6.73
2022-12-20T00:18:01.222Z,5.13
2022-12-20T00:23:03.998Z,7.87
2022-12-20T00:28:06.259Z,4.27
2022-12-20T00:33:08.464Z,3.83
2022-12-20T00:38:10.770Z,6.63
2022-12-20T00:43:13.294Z,6.43
2022-12-20T00:48:15.525Z,4.93
2022-12-20T00:53:22.641Z,6.00
2022-12-20T00:58:29.082Z,3.60
2022-12-20T01:03:32.566Z,4.40
2022-12-20T01:08:34.958Z,7.03
2022-12-20T01:13:39.271Z,4.67
2022-12-20T01:18:41.934Z,6.60
2022-12-20T01:23:44.553Z,6.87
2022-12-20T01:28:48.229Z,6.10
2022-12-20T01:33:51.712Z,8.33
2022-12-20T01:39:16.050Z,8.83
2022-12-20T01:44:18.184Z,6.77
2022-12-20T01:49:33.248Z,6.80
2022-12-20T01:54:59.627Z,5.43
2022-12-20T02:00:02.310Z,4.50
2022-12-20T02:05:18.223Z,7.57
2022-12-20T02:10:24.513Z,5.07
2022-12-20T02:15:36.312Z,6.23
2022-12-20T02:21:06.609Z,6.53
2022-12-20T02:31:50.602Z,5.47
2022-12-20T02:36:53.271Z,8.90
2022-12-20T02:41:58.926Z,7.60
2022-12-20T02:47:03.484Z,9.07
2022-12-20T02:52:06.275Z,8.17
2022-12-20T02:57:22.918Z,7.90
2022-12-20T03:02:25.980Z,8.83
2022-12-20T03:07:29.587Z,7.90
2022-12-20T03:12:32.525Z,7.40
2022-12-20T03:17:35.247Z,9.87
2022-12-20T03:22:38.790Z,9.33
2022-12-20T03:27:41.285Z,9.60
2022-12-20T03:32:44.898Z,11.73
2022-12-20T03:37:47.736Z,7.93
2022-12-20T03:42:50.085Z,9.67
2022-12-20T03:47:52.305Z,12.97
2022-12-20T03:52:55.671Z,12.00
2022-12-20T03:58:00.477Z,9.73
2022-12-20T04:03:07.208Z,9.75
2022-12-20T04:08:10.000Z,12.03
2022-12-20T04:13:12.366Z,6.70
2022-12-20T04:18:14.713Z,8.93
2022-12-20T04:23:17.736Z,10.20
2022-12-20T04:28:20.795Z,9.33
2022-12-20T04:33:25.348Z,11.07
2022-12-20T04:38:27.792Z,8.20
2022-12-20T04:43:30.457Z,12.10
2022-12-20T04:48:56.383Z,11.10
2022-12-20T04:53:58.039Z,9.77
2022-12-20T04:59:08.999Z,9.80
2022-12-20T05:04:11.917Z,7.80
2022-12-20T05:09:14.539Z,10.50
2022-12-20T05:14:17.027Z,11.27
2022-12-20T05:19:19.435Z,8.03
2022-12-20T05:24:40.592Z,8.47
2022-12-20T05:30:01.006Z,9.27
2022-12-20T05:35:06.133Z,15.47
2022-12-20T05:40:10.048Z,11.07
2022-12-20T05:45:13.525Z,11.27
2022-12-20T05:50:24.902Z,12.43
2022-12-20T05:55:48.908Z,14.90
2022-12-20T06:00:51.671Z,10.73
2022-12-20T06:05:54.885Z,11.47
2022-12-20T06:11:04.967Z,11.80
2022-12-20T06:16:13.851Z,10.33
2022-12-20T06:21:17.880Z,11.90
2022-12-20T06:26:26.278Z,9.87
2022-12-20T06:31:29.803Z,14.53
2022-12-20T06:36:32.255Z,16.63
2022-12-20T06:41:36.054Z,11.53
2022-12-20T06:46:38.465Z,9.90
2022-12-20T06:51:41.232Z,11.67
2022-12-20T06:56:44.030Z,8.43
2022-12-20T07:01:48.134Z,12.63
2022-12-20T07:06:50.599Z,11.33
2022-12-20T07:11:52.979Z,10.87
2022-12-20T07:16:55.454Z,12.00
2022-12-20T07:21:57.813Z,6.53
2022-12-20T07:27:00.323Z,8.50
2022-12-20T07:32:03.608Z,10.80
2022-12-20T07:37:05.954Z,8.33
2022-12-20T07:42:09.694Z,7.77
2022-12-20T07:47:17.669Z,7.77
2022-12-20T07:52:21.861Z,9.07
2022-12-20T07:57:28.266Z,10.07
2022-12-20T08:02:39.383Z,6.03
2022-12-20T08:07:43.792Z,7.67
2022-12-20T08:12:48.618Z,7.67
2022-12-20T08:17:51.399Z,4.67
2022-12-20T08:22:53.720Z,7.07
2022-12-20T08:27:56.359Z,7.93
2022-12-20T08:32:58.608Z,4.73
2022-12-20T08:38:00.910Z,7.27
2022-12-20T08:43:09.750Z,4.50
2022-12-20T08:53:14.588Z,7.80
2022-12-20T08:58:17.015Z,5.47
2022-12-20T09:03:19.581Z,3.67
2022-12-20T09:08:21.884Z,6.97
2022-12-20T09:13:24.124Z,3.37
2022-12-20T09:18:26.354Z,3.67
2022-12-20T09:23:29.434Z,6.07
2022-12-20T09:28:32.771Z,4.40
2022-12-20T09:33:35.618Z,3.53
2022-12-20T09:38:37.874Z,3.40
2022-12-20T09:43:41.994Z,4.83
2022-12-20T09:48:44.942Z,7.07
2022-12-20T09:53:56.180Z,3.13
2022-12-20T09:59:07.266Z,6.90
2022-12-20T10:04:22.315Z,4.50
2022-12-20T10:09:33.901Z,5.37
2022-12-20T10:14:41.987Z,6.87
2022-12-20T10:20:04.811Z,7.47
2022-12-20T10:25:25.353Z,4.33
2022-12-20T10:30:33.201Z,3.53
2022-12-20T10:35:41.164Z,8.73
2022-12-20T10:41:21.196Z,6.40
2022-12-20T10:46:18.154Z,4.13
2022-12-20T10:51:22.860Z,4.60
2022-12-20T10:56:30.394Z,3.63
2022-12-20T11:01:36.000Z,5.00
2022-12-20T11:06:38.363Z,4.83
2022-12-20T11:12:00.179Z,4.80
2022-12-20T11:17:25.821Z,4.33
2022-12-20T11:22:56.623Z,5.13
2022-12-20T11:28:12.349Z,3.40
2022-12-20T11:33:36.463Z,4.70
2022-12-20T11:38:42.673Z,7.43
2022-12-20T11:44:31.186Z,5.83
2022-12-20T11:50:04.834Z,5.73
2022-12-20T11:55:12.858Z,3.33
2022-12-20T12:00:16.358Z,3.63
2022-12-20T12:05:25.733Z,9.07
2022-12-20T12:15:39.089Z,4.87
2022-12-20T12:20:48.720Z,2.83
2022-12-20T12:25:51.320Z,4.17
2022-12-20T12:31:15.769Z,5.10
2022-12-20T12:36:36.140Z,4.50
2022-12-20T12:42:09.468Z,3.23
2022-12-20T12:47:20.321Z,5.17
2022-12-20T12:52:50.838Z,7.03
2022-12-20T12:57:59.589Z,4.30
2022-12-20T13:03:06.374Z,2.47
2022-12-20T13:08:18.617Z,5.73
2022-12-20T13:13:23.145Z,3.50
2022-12-20T13:18:25.950Z,3.10
2022-12-20T13:23:28.179Z,5.30
2022-12-20T13:28:30.332Z,5.13
2022-12-20T13:33:49.237Z,5.20
2022-12-20T13:38:53.729Z,4.18
2022-12-20T13:43:57.480Z,3.07
2022-12-20T13:49:11.006Z,7.40
2022-12-20T13:54:26.861Z,4.00
2022-12-20T13:59:33.517Z,7.47
2022-12-20T14:04:44.433Z,3.93
2022-12-20T14:09:56.477Z,6.93
2022-12-20T14:14:58.954Z,7.33
2022-12-20T14:20:17.813Z,5.37
2022-12-20T14:25:32.064Z,3.87
2022-12-20T14:30:43.229Z,12.00
2022-12-20T14:35:49.324Z,4.77
2022-12-20T14:40:54.203Z,6.33
2022-12-20T14:46:19.837Z,4.50
2022-12-20T14:51:22.417Z,4.27
2022-12-20T14:56:31.500Z,10.10
2022-12-20T15:01:38.534Z,7.13
2022-12-20T15:06:46.172Z,6.03
2022-12-20T15:11:49.243Z,6.27
2022-12-20T15:16:52.385Z,5.53
2022-12-20T15:21:55.113Z,6.77
2022-12-20T15:26:57.563Z,7.10
2022-12-20T15:32:13.733Z,8.83
2022-12-20T15:37:18.736Z,7.27
2022-12-20T15:42:23.192Z,4.80
2022-12-20T15:47:25.385Z,11.27
2022-12-20T15:52:27.850Z,6.80
2022-12-20T15:57:31.092Z,7.70
2022-12-20T16:02:33.654Z,4.83
2022-12-20T16:07:36.062Z,6.50
2022-12-20T16:12:38.865Z,5.97
2022-12-20T16:17:41.282Z,6.37
2022-12-20T16:22:45.116Z,10.33
2022-12-20T16:27:49.025Z,11.70
2022-12-20T16:32:51.501Z,9.83
2022-12-20T16:37:55.967Z,6.77
2022-12-20T16:42:59.788Z,6.70
2022-12-20T16:48:02.114Z,9.37
2022-12-20T16:53:04.466Z,7.53
2022-12-20T16:58:06.790Z,7.53
2022-12-20T17:03:09.135Z,6.60
2022-12-20T17:13:27.693Z,6.87
2022-12-20T17:18:29.959Z,8.50
2022-12-20T17:23:44.073Z,7.20
2022-12-20T17:28:46.914Z,7.63
2022-12-20T17:33:49.149Z,7.53
2022-12-20T17:38:51.539Z,9.83
2022-12-20T17:43:59.603Z,7.60
2022-12-20T17:49:01.875Z,10.90
2022-12-20T17:54:04.288Z,8.13
2022-12-20T17:59:06.555Z,7.63
2022-12-20T18:04:11.260Z,9.47
2022-12-20T18:09:18.899Z,6.93
2022-12-20T18:14:21.196Z,11.43
2022-12-20T18:19:23.487Z,7.37
2022-12-20T18:24:26.099Z,7.33
2022-12-20T18:29:28.963Z,8.33
2022-12-20T18:34:31.529Z,9.50
2022-12-20T18:39:34.056Z,7.90
2022-12-20T18:44:36.486Z,9.60
2022-12-20T18:49:38.904Z,8.40
2022-12-20T18:54:41.321Z,5.53
2022-12-20T18:59:43.790Z,8.07
2022-12-20T19:04:49.020Z,6.10
2022-12-20T19:09:51.301Z,7.73
2022-12-20T19:15:04.002Z,7.83
2022-12-20T19:20:07.257Z,7.37
2022-12-20T19:25:09.805Z,7.23
2022-12-20T19:30:12.294Z,8.20
2022-12-20T19:35:52.859Z,7.57
2022-12-20T19:40:37.228Z,12.07
2022-12-20T19:45:39.659Z,8.97
2022-12-20T19:50:41.900Z,6.13
2022-12-20T19:55:53.023Z,5.47
2022-12-20T20:00:55.965Z,8.53
2022-12-20T20:05:58.664Z,9.70
2022-12-20T20:11:08.789Z,12.77
2022-12-20T20:16:15.483Z,6.90
2022-12-20T20:21:23.304Z,8.87
2022-12-20T20:26:27.417Z,7.03
2022-12-20T20:31:29.802Z,10.63
2022-12-20T20:36:32.135Z,13.97
2022-12-20T20:41:34.523Z,11.10
2022-12-20T20:46:36.828Z,10.07
2022-12-20T20:51:39.206Z,13.27
2022-12-20T20:56:41.645Z,12.70
2022-12-20T21:01:43.936Z,12.67
2022-12-20T21:06:46.802Z,12.33
2022-12-20T21:11:49.223Z,24.80
2022-12-20T21:16:51.499Z,14.87
2022-12-20T21:21:53.817Z,9.50
2022-12-20T21:26:57.218Z,15.80
2022-12-20T21:31:59.548Z,7.60
2022-12-20T21:37:01.871Z,11.47
2022-12-20T21:42:04.254Z,15.27
2022-12-20T21:47:06.630Z,8.67
2022-12-20T21:52:08.840Z,10.40
2022-12-20T21:57:11.622Z,11.37
2022-12-20T22:02:14.731Z,19.03
2022-12-20T22:07:17.116Z,15.80
2022-12-20T22:12:19.520Z,12.40
2022-12-20T22:17:21.714Z,15.23
2022-12-20T22:22:25.630Z,11.23
2022-12-20T22:27:27.928Z,12.37
2022-12-20T22:32:31.932Z,13.47
2022-12-20T22:37:34.171Z,14.93
2022-12-20T22:42:40.155Z,13.67
2022-12-20T22:47:42.504Z,16.73
2022-12-20T22:52:44.792Z,11.47
2022-12-20T22:57:48.122Z,13.47
2022-12-20T23:02:50.711Z,10.87
2022-12-20T23:07:52.997Z,10.70
2022-12-20T23:13:21.143Z,12.50
2022-12-20T23:18:23.437Z,13.00
2022-12-20T23:23:25.728Z,11.23
2022-12-20T23:28:27.939Z,10.73
2022-12-20T23:33:30.255Z,10.67
2022-12-20T23:38:33.731Z,9.27
2022-12-20T23:43:36.676Z,11.33
2022-12-20T23:48:39.245Z,10.70
2022-12-20T23:53:41.512Z,13.60
2022-12-20T23:58:45.053Z,17.20
